createdAt,value
2022-09-09T00:01:39.021Z,19.27
2022-09-09T00:04:15.759Z,19.38
2022-09-09T00:06:52.007Z,18.97
2022-09-09T00:09:21.665Z,19.23
2022-09-09T00:11:57.945Z,19.26
2022-09-09T00:14:50.386Z,19.17
2022-09-09T00:17:47.267Z,19.14
2022-09-09T00:20:17.912Z,19.24
2022-09-09T00:23:07.587Z,19.53
2022-09-09T00:25:40.267Z,19.67
2022-09-09T00:28:21.885Z,20.03
2022-09-09T00:30:49.691Z,20.12
2022-09-09T00:33:23.249Z,20.06
2022-09-09T00:36:01.519Z,19.93
2022-09-09T00:38:39.423Z,19.88
2022-09-09T00:41:44.799Z,19.54
2022-09-09T00:44:30.769Z,19.46
2022-09-09T00:47:06.129Z,19.24
2022-09-09T00:49:47.556Z,19.02
2022-09-09T00:52:24.346Z,19.12
2022-09-09T00:55:00.928Z,19.24
2022-09-09T00:57:33.846Z,19.18
2022-09-09T01:00:28.207Z,19.22
2022-09-09T01:02:56.885Z,19.21
2022-09-09T01:05:28.648Z,19.32
2022-09-09T01:07:58.399Z,19.03
2022-09-09T01:10:37.005Z,18.95
2022-09-09T01:13:14.157Z,18.89
2022-09-09T01:15:42.680Z,19.07
2022-09-09T01:18:13.557Z,19.15
2022-09-09T01:21:17.102Z,19.15
2022-09-09T01:24:15.063Z,19.25
2022-09-09T01:26:44.374Z,19.51
2022-09-09T01:29:16.376Z,19.45
2022-09-09T01:31:57.422Z,18.95
2022-09-09T01:34:28.261Z,18.49
2022-09-09T01:37:07.804Z,18.90
2022-09-09T01:39:37.029Z,17.99
2022-09-09T01:42:06.389Z,17.74
2022-09-09T01:44:34.245Z,17.64
2022-09-09T01:47:02.166Z,17.50
2022-09-09T01:49:29.570Z,18.03
2022-09-09T01:51:58.213Z,17.73
2022-09-09T01:54:29.179Z,17.89
2022-09-09T01:57:18.366Z,19.21
2022-09-09T02:00:14.657Z,19.74
2022-09-09T02:03:15.939Z,19.74
2022-09-09T02:06:06.825Z,19.47
2022-09-09T02:08:43.625Z,19.37
2022-09-09T02:11:23.319Z,18.40
2022-09-09T02:13:55.512Z,17.68
2022-09-09T02:16:33.969Z,18.45
2022-09-09T02:19:10.244Z,18.38
2022-09-09T02:21:40.935Z,18.14
2022-09-09T02:24:11.405Z,18.45
2022-09-09T02:26:43.550Z,18.69
2022-09-09T02:29:15.812Z,17.53
2022-09-09T02:31:45.561Z,17.63
2022-09-09T02:34:16.612Z,17.43
2022-09-09T02:36:45.184Z,17.38
2022-09-09T02:39:12.696Z,17.98
2022-09-09T02:41:42.724Z,17.54
2022-09-09T02:44:12.533Z,17.68
2022-09-09T02:46:58.443Z,17.64
2022-09-09T02:49:50.963Z,18.27
2022-09-09T02:52:23.488Z,17.83
2022-09-09T02:54:51.516Z,17.99
2022-09-09T02:57:24.562Z,17.20
2022-09-09T02:59:53.760Z,17.54
2022-09-09T03:02:21.541Z,17.62
2022-09-09T03:04:52.771Z,17.35
2022-09-09T03:07:20.979Z,17.34
2022-09-09T03:09:49.138Z,17.14
2022-09-09T03:12:17.344Z,17.05
2022-09-09T03:14:46.475Z,16.82
2022-09-09T03:17:14.198Z,17.38
2022-09-09T03:19:42.835Z,17.63
2022-09-09T03:22:12.238Z,17.08
2022-09-09T03:24:41.286Z,17.20
2022-09-09T03:27:08.655Z,16.66
2022-09-09T03:29:36.693Z,17.39
2022-09-09T03:32:04.728Z,17.85
2022-09-09T03:34:32.395Z,17.59
2022-09-09T03:37:00.187Z,18.37
2022-09-09T03:39:28.448Z,18.51
2022-09-09T03:41:55.804Z,17.78
2022-09-09T03:44:23.284Z,18.48
2022-09-09T03:46:51.039Z,17.90
2022-09-09T03:49:19.043Z,17.54
2022-09-09T03:51:46.889Z,17.59
2022-09-09T03:54:14.792Z,17.75
2022-09-09T03:56:42.795Z,17.73
2022-09-09T03:59:10.957Z,18.55
2022-09-09T04:01:38.626Z,17.32
2022-09-09T04:04:06.381Z,17.42
2022-09-09T04:06:33.850Z,17.72
2022-09-09T04:09:04.298Z,16.90
2022-09-09T04:11:32.218Z,17.00
2022-09-09T04:13:59.819Z,18.02
2022-09-09T04:16:27.308Z,18.56
2022-09-09T04:18:54.995Z,18.08
2022-09-09T04:21:22.414Z,18.15
2022-09-09T04:23:49.924Z,18.90
2022-09-09T04:26:17.815Z,17.81
2022-09-09T04:28:45.639Z,18.58
2022-09-09T04:31:19.542Z,18.46
2022-09-09T04:33:47.702Z,18.59
2022-09-09T04:36:15.072Z,18.59
2022-09-09T04:38:42.970Z,17.66
2022-09-09T04:41:12.119Z,18.00
2022-09-09T04:43:40.415Z,18.12
2022-09-09T04:46:07.970Z,18.07
2022-09-09T04:48:36.249Z,18.22
2022-09-09T04:51:06.778Z,18.12
2022-09-09T04:53:39.061Z,18.35
2022-09-09T04:56:12.745Z,18.28
2022-09-09T04:58:43.961Z,18.45
2022-09-09T05:01:18.596Z,18.42
2022-09-09T05:03:47.029Z,18.47
2022-09-09T05:06:17.725Z,18.38
2022-09-09T05:08:46.074Z,18.18
2022-09-09T05:11:25.253Z,18.17
2022-09-09T05:13:54.528Z,18.18
2022-09-09T05:16:22.466Z,18.06
2022-09-09T05:18:51.605Z,18.13
2022-09-09T05:21:21.657Z,18.26
2022-09-09T05:23:49.173Z,18.31
2022-09-09T05:26:18.884Z,17.75
2022-09-09T05:28:47.903Z,18.11
2022-09-09T05:31:17.184Z,18.18
2022-09-09T05:33:47.145Z,18.25
2022-09-09T05:36:17.695Z,17.20
2022-09-09T05:38:47.098Z,17.18
2022-09-09T05:41:18.269Z,18.07
2022-09-09T05:43:49.827Z,17.54
2022-09-09T05:46:21.727Z,17.41
2022-09-09T05:48:54.371Z,17.20
2022-09-09T05:51:25.168Z,17.24
2022-09-09T05:53:52.916Z,18.06
2022-09-09T05:56:26.297Z,17.70
2022-09-09T05:58:57.563Z,18.37
2022-09-09T06:01:27.837Z,17.64
2022-09-09T06:03:55.785Z,17.76
2022-09-09T06:06:26.956Z,18.18
2022-09-09T06:08:58.459Z,18.10
2022-09-09T06:11:32.135Z,18.50
2022-09-09T06:14:00.964Z,19.30
2022-09-09T06:16:30.097Z,18.48
2022-09-09T06:18:58.835Z,18.49
2022-09-09T06:21:28.765Z,17.88
2022-09-09T06:24:00.696Z,17.93
2022-09-09T06:26:31.637Z,18.31
2022-09-09T06:28:59.881Z,18.35
2022-09-09T06:31:31.258Z,18.33
2022-09-09T06:34:00.868Z,18.11
2022-09-09T06:36:32.087Z,18.37
2022-09-09T06:39:00.791Z,18.22
2022-09-09T06:41:29.895Z,18.12
2022-09-09T06:43:57.730Z,18.13
2022-09-09T06:46:32.147Z,18.82
2022-09-09T06:49:01.338Z,18.85
2022-09-09T06:51:35.106Z,18.80
2022-09-09T06:54:04.900Z,18.86
2022-09-09T06:56:38.289Z,18.46
2022-09-09T06:59:09.545Z,18.67
2022-09-09T07:01:40.775Z,18.82
2022-09-09T07:04:10.514Z,18.33
2022-09-09T07:06:59.928Z,18.47
2022-09-09T07:09:28.480Z,18.24
2022-09-09T07:11:56.338Z,18.24
2022-09-09T07:14:23.851Z,18.17
2022-09-09T07:16:54.552Z,18.00
2022-09-09T07:19:25.524Z,18.15
2022-09-09T07:21:53.429Z,19.05
2022-09-09T07:24:21.571Z,18.83
2022-09-09T07:26:50.242Z,18.35
2022-09-09T07:29:20.821Z,18.45
2022-09-09T07:31:49.549Z,19.58
2022-09-09T07:34:18.170Z,19.54
2022-09-09T07:36:45.537Z,19.23
2022-09-09T07:39:14.596Z,19.45
2022-09-09T07:41:48.141Z,19.43
2022-09-09T07:44:18.845Z,19.12
2022-09-09T07:46:47.159Z,19.05
2022-09-09T07:49:16.065Z,19.66
2022-09-09T07:51:46.292Z,19.98
2022-09-09T07:54:16.207Z,19.56
2022-09-09T07:56:44.331Z,20.66
2022-09-09T07:59:13.095Z,20.73
2022-09-09T08:01:51.215Z,20.73
2022-09-09T08:04:20.312Z,20.16
2022-09-09T08:06:50.841Z,20.51
2022-09-09T08:09:18.971Z,21.07
2022-09-09T08:11:48.050Z,21.21
2022-09-09T08:14:15.536Z,22.34
2022-09-09T08:16:45.938Z,23.79
2022-09-09T08:19:18.364Z,23.70
2022-09-09T08:21:46.448Z,22.52
2022-09-09T08:24:15.992Z,23.47
2022-09-09T08:26:48.277Z,23.70
2022-09-09T08:29:17.306Z,22.68
2022-09-09T08:31:47.954Z,23.40
2022-09-09T08:34:18.629Z,25.24
2022-09-09T08:36:47.462Z,23.65
2022-09-09T08:39:16.555Z,24.14
2022-09-09T08:41:56.017Z,25.43
2022-09-09T08:44:32.326Z,23.42
2022-09-09T08:47:06.957Z,23.34
2022-09-09T08:50:02.392Z,23.53
2022-09-09T08:52:40.395Z,22.48
2022-09-09T08:55:23.818Z,22.61
2022-09-09T08:57:57.322Z,22.61
2022-09-09T09:00:35.208Z,22.64
2022-09-09T09:03:33.233Z,23.67
2022-09-09T09:06:23.792Z,22.74
2022-09-09T09:09:23.525Z,22.41
2022-09-09T09:11:55.020Z,23.48
2022-09-09T09:14:25.666Z,23.48
2022-09-09T09:17:10.094Z,24.32
2022-09-09T09:19:40.769Z,24.39
2022-09-09T09:22:26.245Z,24.54
2022-09-09T09:25:22.003Z,24.20
2022-09-09T09:27:49.336Z,24.73
2022-09-09T09:30:29.461Z,25.07
2022-09-09T09:33:09.643Z,25.21
2022-09-09T09:35:41.915Z,25.43
2022-09-09T09:41:06.357Z,24.17
2022-09-09T09:43:36.532Z,25.15
2022-09-09T09:46:17.507Z,25.55
2022-09-09T09:48:47.357Z,25.67
2022-09-09T09:51:18.135Z,25.48
2022-09-09T09:53:46.471Z,26.06
2022-09-09T09:56:15.885Z,25.78
2022-09-09T09:58:50.696Z,25.94
2022-09-09T10:01:25.472Z,25.37
2022-09-09T10:04:14.103Z,24.42
2022-09-09T10:06:41.680Z,25.44
2022-09-09T10:09:26.672Z,24.86
2022-09-09T10:12:04.752Z,25.54
2022-09-09T10:14:46.363Z,26.18
2022-09-09T10:17:32.883Z,25.12
2022-09-09T10:20:23.075Z,26.69
2022-09-09T10:23:14.570Z,26.50
2022-09-09T10:25:51.782Z,26.53
2022-09-09T10:28:31.579Z,26.18
2022-09-09T10:31:01.907Z,25.52
2022-09-09T10:33:37.151Z,26.33
2022-09-09T10:36:18.983Z,26.28
2022-09-09T10:38:48.191Z,27.35
2022-09-09T10:41:34.554Z,27.51
2022-09-09T10:44:28.298Z,26.85
2022-09-09T10:47:21.950Z,26.94
2022-09-09T10:50:14.008Z,27.17
2022-09-09T10:53:02.391Z,27.15
2022-09-09T10:55:38.277Z,27.12
2022-09-09T10:58:07.633Z,27.56
2022-09-09T11:00:38.028Z,27.15
2022-09-09T11:03:08.091Z,28.15
2022-09-09T11:05:47.591Z,26.66
2022-09-09T11:08:19.307Z,26.58
2022-09-09T11:10:56.159Z,26.97
2022-09-09T11:13:28.123Z,27.72
2022-09-09T11:16:39.582Z,28.19
2022-09-09T11:19:27.054Z,27.11
2022-09-09T11:21:55.880Z,27.78
2022-09-09T11:24:30.971Z,26.57
2022-09-09T11:27:13.238Z,26.91
2022-09-09T11:29:59.600Z,26.32
2022-09-09T11:32:58.741Z,26.78
2022-09-09T11:35:53.872Z,26.77
2022-09-09T11:38:28.557Z,26.47
2022-09-09T11:40:58.878Z,27.23
2022-09-09T11:43:31.034Z,25.97
2022-09-09T11:46:03.723Z,27.02
2022-09-09T11:48:58.851Z,26.46
2022-09-09T11:51:29.375Z,26.57
2022-09-09T11:53:59.835Z,26.63
2022-09-09T11:56:44.993Z,26.37
2022-09-09T11:59:30.454Z,25.74
2022-09-09T12:01:59.818Z,26.11
2022-09-09T12:04:38.645Z,26.25
2022-09-09T12:07:23.132Z,26.29
2022-09-09T12:09:57.638Z,25.79
2022-09-09T12:12:33.426Z,25.91
2022-09-09T12:15:04.658Z,26.25
2022-09-09T12:17:41.996Z,26.81
2022-09-09T12:20:18.862Z,26.95
2022-09-09T12:23:06.138Z,27.13
2022-09-09T12:25:47.478Z,27.21
2022-09-09T12:28:20.379Z,27.48
2022-09-09T12:30:57.270Z,27.25
2022-09-09T12:33:24.902Z,27.02
2022-09-09T12:35:56.858Z,26.58
2022-09-09T12:38:31.729Z,26.79
2022-09-09T12:40:59.965Z,27.31
2022-09-09T12:43:28.490Z,27.76
2022-09-09T12:46:02.635Z,28.18
2022-09-09T12:48:32.653Z,28.40
2022-09-09T12:51:01.390Z,28.88
2022-09-09T12:53:36.572Z,27.09
2022-09-09T12:56:09.291Z,26.71
2022-09-09T12:58:38.055Z,27.20
2022-09-09T13:01:06.636Z,27.72
2022-09-09T13:03:35.040Z,28.25
2022-09-09T13:06:15.268Z,28.04
2022-09-09T13:08:43.163Z,27.13
2022-09-09T13:11:15.246Z,27.08
2022-09-09T13:13:44.484Z,27.95
2022-09-09T13:16:27.558Z,28.65
2022-09-09T13:18:56.922Z,28.63
2022-09-09T13:21:38.729Z,27.35
2022-09-09T13:24:32.184Z,26.75
2022-09-09T13:27:21.713Z,26.94
2022-09-09T13:29:56.762Z,27.70
2022-09-09T13:32:27.792Z,26.60
2022-09-09T13:35:00.709Z,26.12
2022-09-09T13:37:39.882Z,26.06
2022-09-09T13:40:18.707Z,26.68
2022-09-09T13:42:46.212Z,26.47
2022-09-09T13:45:22.737Z,26.17
2022-09-09T13:47:53.681Z,27.73
2022-09-09T13:50:29.824Z,28.00
2022-09-09T13:53:01.640Z,27.86
2022-09-09T13:55:30.067Z,27.42
2022-09-09T13:58:02.526Z,26.36
2022-09-09T14:00:32.184Z,27.51
2022-09-09T14:03:03.073Z,27.66
2022-09-09T14:05:34.390Z,27.98
2022-09-09T14:08:04.796Z,27.68
2022-09-09T14:10:32.272Z,27.58
2022-09-09T14:12:59.615Z,27.62
2022-09-09T14:15:28.124Z,27.61
2022-09-09T14:17:55.947Z,27.95
2022-09-09T14:20:23.602Z,27.96
2022-09-09T14:22:51.351Z,28.11
2022-09-09T14:25:18.736Z,28.08
2022-09-09T14:27:46.937Z,27.49
2022-09-09T14:30:14.798Z,27.38
2022-09-09T14:32:42.227Z,27.85
2022-09-09T14:35:09.666Z,27.95
2022-09-09T14:37:37.387Z,28.11
2022-09-09T14:40:05.220Z,28.07
2022-09-09T14:42:32.683Z,27.75
2022-09-09T14:45:00.311Z,27.98
2022-09-09T14:47:27.908Z,27.38
2022-09-09T14:49:55.343Z,28.04
2022-09-09T14:52:26.322Z,27.96
2022-09-09T14:54:53.758Z,27.83
2022-09-09T14:57:21.203Z,27.45
2022-09-09T14:59:51.679Z,27.38
2022-09-09T15:02:19.061Z,27.71
2022-09-09T15:04:46.913Z,28.18
2022-09-09T15:07:17.749Z,27.47
2022-09-09T15:09:45.618Z,27.83
2022-09-09T15:12:13.366Z,27.18
2022-09-09T15:14:41.015Z,27.61
2022-09-09T15:17:08.354Z,27.44
2022-09-09T15:19:35.982Z,27.54
2022-09-09T15:22:06.268Z,28.08
2022-09-09T15:24:33.979Z,28.34
2022-09-09T15:27:02.193Z,28.75
2022-09-09T15:29:29.829Z,28.72
2022-09-09T15:31:57.283Z,28.93
2022-09-09T15:34:24.821Z,28.69
2022-09-09T15:36:52.581Z,28.99
2022-09-09T15:39:19.961Z,28.17
2022-09-09T15:41:48.321Z,28.71
2022-09-09T15:44:16.794Z,29.04
2022-09-09T15:46:50.191Z,28.83
2022-09-09T15:49:23.787Z,28.81
2022-09-09T15:51:59.904Z,28.61
2022-09-09T15:54:27.589Z,28.55
2022-09-09T15:56:59.886Z,27.69
2022-09-09T15:59:29.023Z,27.87
2022-09-09T16:01:57.214Z,27.52
2022-09-09T16:04:25.546Z,28.19
2022-09-09T16:06:59.429Z,27.97
2022-09-09T16:09:28.429Z,27.98
2022-09-09T16:12:01.922Z,27.90
2022-09-09T16:14:30.012Z,27.50
2022-09-09T16:17:00.181Z,27.05
2022-09-09T16:19:27.563Z,26.72
2022-09-09T16:21:55.364Z,26.02
2022-09-09T16:24:23.323Z,25.82
2022-09-09T16:26:52.626Z,25.82
2022-09-09T16:29:20.888Z,26.06
2022-09-09T16:31:49.284Z,26.28
2022-09-09T16:34:18.424Z,25.76
2022-09-09T16:36:47.275Z,26.05
2022-09-09T16:39:17.648Z,25.50
2022-09-09T16:41:46.215Z,26.22
2022-09-09T16:44:16.147Z,26.04
2022-09-09T16:46:44.644Z,25.99
2022-09-09T16:49:14.166Z,25.88
2022-09-09T16:51:44.735Z,25.27
2022-09-09T16:54:13.041Z,25.07
2022-09-09T16:56:42.642Z,25.10
2022-09-09T16:59:15.814Z,24.82
2022-09-09T17:01:44.759Z,24.61
2022-09-09T17:04:16.407Z,24.67
2022-09-09T17:06:47.342Z,24.44
2022-09-09T17:09:15.130Z,24.80
2022-09-09T17:11:42.712Z,24.68
2022-09-09T17:14:14.413Z,24.33
2022-09-09T17:16:42.197Z,24.27
2022-09-09T17:19:10.769Z,24.37
2022-09-09T17:21:54.508Z,24.28
2022-09-09T17:24:27.523Z,24.77
2022-09-09T17:26:55.413Z,24.98
2022-09-09T17:29:23.257Z,25.48
2022-09-09T17:31:51.909Z,25.01
2022-09-09T17:34:22.917Z,24.66
2022-09-09T17:36:51.077Z,24.27
2022-09-09T17:39:18.658Z,24.26
2022-09-09T17:41:46.533Z,24.12
2022-09-09T17:44:14.237Z,23.97
2022-09-09T17:46:42.928Z,23.41
2022-09-09T17:49:15.438Z,23.80
2022-09-09T17:51:43.756Z,24.27
2022-09-09T17:54:17.309Z,24.37
2022-09-09T17:56:48.013Z,23.69
2022-09-09T17:59:18.724Z,23.98
2022-09-09T18:01:48.190Z,24.09
2022-09-09T18:04:16.774Z,23.91
2022-09-09T18:06:46.228Z,23.30
2022-09-09T18:09:17.489Z,23.02
2022-09-09T18:11:47.753Z,22.57
2022-09-09T18:14:18.126Z,22.38
2022-09-09T18:16:46.061Z,22.37
2022-09-09T18:19:15.114Z,22.43
2022-09-09T18:21:43.878Z,22.27
2022-09-09T18:24:12.672Z,22.48
2022-09-09T18:26:41.197Z,22.10
2022-09-09T18:29:11.316Z,22.03
2022-09-09T18:31:39.633Z,21.97
2022-09-09T18:34:10.039Z,21.88
2022-09-09T18:36:46.934Z,21.70
2022-09-09T18:39:16.612Z,21.82
2022-09-09T18:41:50.502Z,21.92
2022-09-09T18:44:21.272Z,21.89
2022-09-09T18:46:49.645Z,21.78
2022-09-09T18:49:17.412Z,21.68
2022-09-09T18:51:46.658Z,21.69
2022-09-09T18:54:23.330Z,21.48
2022-09-09T18:56:52.935Z,21.53
2022-09-09T18:59:22.231Z,21.17
2022-09-09T19:01:51.028Z,21.34
2022-09-09T19:04:19.733Z,21.47
2022-09-09T19:06:48.827Z,21.63
2022-09-09T19:09:18.730Z,21.62
2022-09-09T19:11:46.911Z,21.36
2022-09-09T19:14:16.036Z,21.54
2022-09-09T19:16:45.450Z,21.65
2022-09-09T19:19:19.141Z,21.25
2022-09-09T19:21:47.376Z,21.23
2022-09-09T19:24:21.619Z,20.96
2022-09-09T19:26:52.422Z,20.78
2022-09-09T19:29:24.952Z,20.73
2022-09-09T19:32:36.463Z,20.61
2022-09-09T19:34:44.146Z,20.57
2022-09-09T19:37:16.317Z,20.66
2022-09-09T19:39:47.412Z,20.79
2022-09-09T19:42:15.106Z,20.73
2022-09-09T19:44:42.828Z,20.50
2022-09-09T19:47:10.762Z,20.49
2022-09-09T19:49:38.625Z,20.64
2022-09-09T19:52:06.093Z,20.80
2022-09-09T19:54:33.753Z,20.81
2022-09-09T19:57:01.383Z,20.26
2022-09-09T19:59:29.084Z,21.25
2022-09-09T20:01:56.973Z,20.98
2022-09-09T20:04:26.611Z,21.21
2022-09-09T20:06:54.257Z,22.16
2022-09-09T20:09:22.095Z,22.60
2022-09-09T20:11:49.989Z,21.99
2022-09-09T20:14:18.290Z,22.34
2022-09-09T20:16:46.592Z,21.87
2022-09-09T20:19:16.534Z,22.03
2022-09-09T20:21:47.990Z,21.32
2022-09-09T20:24:18.950Z,21.28
2022-09-09T20:26:48.404Z,21.12
2022-09-09T20:29:18.776Z,21.16
2022-09-09T20:31:46.575Z,21.60
2022-09-09T20:34:16.667Z,21.57
2022-09-09T20:36:44.855Z,21.48
2022-09-09T20:39:15.151Z,21.07
2022-09-09T20:41:45.373Z,20.82
2022-09-09T20:44:24.260Z,21.74
2022-09-09T20:46:55.520Z,21.85
2022-09-09T20:49:24.343Z,21.47
2022-09-09T20:51:53.201Z,21.80
2022-09-09T20:54:23.495Z,21.86
2022-09-09T20:56:52.713Z,21.11
2022-09-09T20:59:25.263Z,21.28
2022-09-09T21:01:53.863Z,20.91
2022-09-09T21:04:21.987Z,21.12
2022-09-09T21:06:51.092Z,20.81
2022-09-09T21:09:19.445Z,20.13
2022-09-09T21:11:47.238Z,20.17
2022-09-09T21:14:14.873Z,20.71
2022-09-09T21:16:42.575Z,20.69
2022-09-09T21:19:09.964Z,20.86
2022-09-09T21:21:37.434Z,20.91
2022-09-09T21:24:05.639Z,21.27
2022-09-09T21:26:33.169Z,21.01
2022-09-09T21:29:00.507Z,21.87
2022-09-09T21:31:28.658Z,22.00
2022-09-09T21:33:57.551Z,22.26
2022-09-09T21:36:27.230Z,22.29
2022-09-09T21:38:55.116Z,22.55
2022-09-09T21:41:22.493Z,22.70
2022-09-09T21:43:52.439Z,21.98
2022-09-09T21:46:20.854Z,22.60
2022-09-09T21:48:48.214Z,22.96
2022-09-09T21:51:16.681Z,22.85
2022-09-09T21:53:44.672Z,22.57
2022-09-09T21:56:14.636Z,21.85
2022-09-09T21:58:42.664Z,21.11
2022-09-09T22:01:12.614Z,20.78
2022-09-09T22:03:42.473Z,21.02
2022-09-09T22:06:12.519Z,20.65
2022-09-09T22:08:40.337Z,20.59
2022-09-09T22:11:10.042Z,20.13
2022-09-09T22:13:38.442Z,20.57
2022-09-09T22:16:07.670Z,21.36
2022-09-09T22:18:35.789Z,20.35
2022-09-09T22:21:15.150Z,19.63
2022-09-09T22:23:42.815Z,19.33
2022-09-09T22:26:10.347Z,19.42
2022-09-09T22:28:38.711Z,19.78
2022-09-09T22:31:06.649Z,19.65
2022-09-09T22:33:34.934Z,19.45
2022-09-09T22:36:02.776Z,19.57
2022-09-09T22:38:31.065Z,19.64
2022-09-09T22:40:58.449Z,19.55
2022-09-09T22:43:25.781Z,19.37
2022-09-09T22:45:53.427Z,19.43
2022-09-09T22:48:20.864Z,19.90
2022-09-09T22:50:48.262Z,19.72
2022-09-09T22:53:17.383Z,19.62
2022-09-09T22:55:58.484Z,19.31
2022-09-09T22:58:30.017Z,19.63
2022-09-09T23:00:58.819Z,19.54
2022-09-09T23:03:30.699Z,20.03
2022-09-09T23:06:00.756Z,19.45
2022-09-09T23:08:33.494Z,19.61
2022-09-09T23:11:03.958Z,19.92
2022-09-09T23:13:33.129Z,19.63
2022-09-09T23:16:03.885Z,19.74
2022-09-09T23:18:33.553Z,19.75
2022-09-09T23:21:01.069Z,19.72
2022-09-09T23:23:29.054Z,19.43
2022-09-09T23:25:56.691Z,19.55
2022-09-09T23:28:24.045Z,19.48
2022-09-09T23:30:51.442Z,19.79
2022-09-09T23:33:19.113Z,19.62
2022-09-09T23:35:47.018Z,19.60
2022-09-09T23:38:14.870Z,19.65
2022-09-09T23:40:45.162Z,19.64
2022-09-09T23:43:12.559Z,19.61
2022-09-09T23:45:39.977Z,19.64
2022-09-09T23:48:07.647Z,19.69
2022-09-09T23:50:34.962Z,19.71
2022-09-09T23:53:03.234Z,19.78
2022-09-09T23:55:31.045Z,19.59
2022-09-09T23:57:58.409Z,19.20
